aviador You're here:

UGTB Decoded Metar

TBILISI/NOVO-AL in GEORGIA
Report Time2017-09-21 19:00:00
UTC Time2017-09-21 19:31:07
Flight Rules vfr VFR
Wind080° at 06 kt
W.Decomp.*RWY 13: 3.5 kt HW 4.9 kt LCW
W.Rank080° ranks 21
Current wind is below 080° avg. (6.1)
Visibility9999 m
Phenomena:N/A
Clouds:Scattered CB 050 Hf
Expected CloudBase > 5,200 ft AGL from Temp-Dew spread
CeilingNone
Temp24°C (ISA +12)
Dew Point11°C (44% RH)
AAT22.2°C
QNH1017 hPa
Density Alt3,084 ft
Elevation1,624 ft
Report Wrong Elevation
Raw Report
METAR UGTB 211900Z 08006KT 9999 SCT050CB 24/11 Q1017 R13R/CLRD70
NOSIG=

Extra information for UGTB:More info

Metar Taf Metar & Taf Last 4 Metars F.Rules Stats Wind Profile Meteogram Temp Stats Airport Information Weather charts Add Link Nearby VenuesMetar ALERT Operation Metar Decoded Social comments